createdAt,value
2022-10-11T00:00:53.917Z,3.17
2022-10-11T00:03:55.584Z,2.73
2022-10-11T00:06:57.203Z,2.77
2022-10-11T00:09:58.806Z,2.90
2022-10-11T00:13:00.579Z,2.63
2022-10-11T00:16:07.784Z,2.63
2022-10-11T00:19:09.948Z,2.80
2022-10-11T00:22:11.535Z,2.63
2022-10-11T00:25:13.539Z,2.70
2022-10-11T00:28:15.187Z,2.83
2022-10-11T00:31:16.909Z,2.77
2022-10-11T00:34:18.588Z,2.90
2022-10-11T00:37:20.822Z,2.70
2022-10-11T00:40:22.611Z,2.60
2022-10-11T00:43:27.328Z,2.87
2022-10-11T00:46:31.068Z,2.80
2022-10-11T00:49:45.785Z,3.13
2022-10-11T00:52:53.152Z,2.70
2022-10-11T00:56:02.426Z,3.43
2022-10-11T00:59:09.919Z,3.00
2022-10-11T01:02:13.091Z,3.03
2022-10-11T01:05:29.087Z,3.03
2022-10-11T01:08:32.216Z,4.27
2022-10-11T01:11:37.767Z,2.77
2022-10-11T01:15:05.361Z,2.80
2022-10-11T01:18:28.981Z,3.53
2022-10-11T01:21:33.648Z,3.43
2022-10-11T01:25:04.978Z,3.73
2022-10-11T01:28:35.956Z,3.73
2022-10-11T01:31:46.646Z,3.60
2022-10-11T01:35:08.629Z,3.40
2022-10-11T01:38:33.553Z,3.57
2022-10-11T01:41:42.689Z,3.20
2022-10-11T01:44:48.906Z,3.40
2022-10-11T01:48:02.560Z,3.20
2022-10-11T01:51:04.305Z,3.37
2022-10-11T01:54:17.882Z,3.40
2022-10-11T01:57:38.931Z,3.60
2022-10-11T02:01:21.150Z,3.90
2022-10-11T02:04:41.986Z,3.47
2022-10-11T02:07:43.552Z,3.27
2022-10-11T02:10:51.779Z,4.20
2022-10-11T02:13:59.149Z,3.73
2022-10-11T02:17:08.700Z,3.60
2022-10-11T02:20:19.390Z,3.80
2022-10-11T02:23:26.550Z,3.40
2022-10-11T02:26:31.750Z,3.70
2022-10-11T02:29:37.880Z,3.50
2022-10-11T02:32:42.577Z,3.60
2022-10-11T02:35:49.297Z,3.03
2022-10-11T02:38:55.760Z,3.07
2022-10-11T02:42:02.293Z,3.30
2022-10-11T02:45:10.977Z,3.57
2022-10-11T02:48:13.100Z,3.70
2022-10-11T02:51:15.106Z,3.83
2022-10-11T02:54:17.100Z,3.13
2022-10-11T02:57:18.762Z,3.63
2022-10-11T03:00:20.441Z,3.10
2022-10-11T03:03:22.101Z,3.27
2022-10-11T03:06:23.695Z,2.90
2022-10-11T03:09:25.437Z,3.90
2022-10-11T03:12:27.040Z,3.30
2022-10-11T03:15:28.775Z,3.27
2022-10-11T03:18:30.955Z,3.33
2022-10-11T03:21:32.617Z,3.20
2022-10-11T03:24:34.225Z,3.07
2022-10-11T03:27:36.036Z,3.63
2022-10-11T03:30:37.624Z,3.57
2022-10-11T03:33:39.356Z,3.40
2022-10-11T03:36:40.992Z,3.67
2022-10-11T03:39:42.663Z,3.60
2022-10-11T03:42:44.301Z,3.20
2022-10-11T03:45:45.967Z,3.47
2022-10-11T03:49:02.002Z,3.77
2022-10-11T03:52:03.704Z,4.27
2022-10-11T03:55:06.384Z,3.60
2022-10-11T03:58:08.545Z,3.93
2022-10-11T04:01:10.969Z,4.30
2022-10-11T04:04:12.671Z,4.27
2022-10-11T04:07:14.288Z,3.90
2022-10-11T04:10:15.971Z,4.30
2022-10-11T04:13:17.882Z,3.97
2022-10-11T04:16:19.503Z,4.07
2022-10-11T04:19:21.556Z,3.70
2022-10-11T04:22:23.210Z,6.37
2022-10-11T04:25:24.989Z,4.83
2022-10-11T04:28:26.639Z,5.80
2022-10-11T04:31:28.433Z,5.73
2022-10-11T04:34:30.052Z,5.77
2022-10-11T04:37:31.681Z,6.23
2022-10-11T04:40:33.411Z,5.80
2022-10-11T04:43:35.107Z,6.40
2022-10-11T04:46:36.708Z,5.77
2022-10-11T04:49:38.312Z,6.23
2022-10-11T04:52:39.969Z,6.83
2022-10-11T04:55:41.539Z,6.57
2022-10-11T04:58:43.135Z,6.60
2022-10-11T05:01:47.828Z,6.80
2022-10-11T05:04:49.471Z,6.70
2022-10-11T05:07:51.192Z,6.67
2022-10-11T05:11:01.763Z,7.77
2022-10-11T05:14:03.368Z,7.30
2022-10-11T05:17:05.824Z,6.70
2022-10-11T05:20:07.976Z,6.87
2022-10-11T05:23:09.596Z,6.80
2022-10-11T05:26:11.458Z,6.47
2022-10-11T05:29:13.044Z,6.83
2022-10-11T05:32:14.741Z,6.27
2022-10-11T05:35:16.455Z,6.83
2022-10-11T05:38:18.319Z,7.43
2022-10-11T05:41:20.156Z,6.80
2022-10-11T05:44:21.755Z,6.67
2022-10-11T05:47:23.371Z,6.37
2022-10-11T05:50:25.230Z,6.87
2022-10-11T05:53:26.960Z,6.67
2022-10-11T05:56:28.545Z,6.60
2022-10-11T05:59:34.711Z,7.53
2022-10-11T06:02:36.389Z,6.80
2022-10-11T06:05:38.444Z,6.70
2022-10-11T06:08:40.059Z,7.67
2022-10-11T06:11:52.966Z,6.33
2022-10-11T06:14:54.584Z,5.97
2022-10-11T06:17:56.348Z,6.87
2022-10-11T06:20:58.806Z,6.07
2022-10-11T06:24:01.827Z,6.40
2022-10-11T06:27:03.569Z,7.13
2022-10-11T06:30:05.774Z,6.40
2022-10-11T06:33:07.564Z,6.73
2022-10-11T06:36:14.553Z,7.17
2022-10-11T06:39:16.181Z,6.73
2022-10-11T06:42:17.816Z,7.03
2022-10-11T06:45:19.409Z,6.23
2022-10-11T06:48:20.994Z,6.07
2022-10-11T06:51:23.237Z,6.67
2022-10-11T06:54:24.926Z,6.60
2022-10-11T06:57:30.723Z,7.17
2022-10-11T07:00:32.341Z,6.50
2022-10-11T07:03:34.021Z,5.73
2022-10-11T07:06:40.932Z,6.67
2022-10-11T07:09:42.584Z,7.03
2022-10-11T07:12:44.897Z,7.73
2022-10-11T07:15:46.496Z,10.07
2022-10-11T07:18:52.978Z,7.07
2022-10-11T07:21:57.569Z,7.83
2022-10-11T07:24:59.151Z,6.23
2022-10-11T07:28:00.760Z,6.77
2022-10-11T07:31:23.447Z,5.73
2022-10-11T07:34:25.101Z,6.07
2022-10-11T07:37:26.785Z,6.17
2022-10-11T07:40:28.484Z,6.73
2022-10-11T07:43:30.066Z,6.57
2022-10-11T07:46:31.773Z,6.80
2022-10-11T07:49:33.360Z,7.43
2022-10-11T07:52:35.621Z,6.20
2022-10-11T07:55:41.940Z,6.83
2022-10-11T07:58:52.326Z,7.20
2022-10-11T08:01:54.627Z,7.67
2022-10-11T08:04:56.535Z,7.67
2022-10-11T08:07:58.398Z,5.73
2022-10-11T08:11:00.633Z,6.63
2022-10-11T08:14:05.157Z,6.03
2022-10-11T08:17:07.298Z,5.73
2022-10-11T08:20:09.404Z,5.17
2022-10-11T08:23:11.364Z,5.27
2022-10-11T08:26:13.006Z,5.57
2022-10-11T08:29:14.637Z,5.30
2022-10-11T08:32:16.329Z,5.57
2022-10-11T08:35:17.909Z,5.83
2022-10-11T08:38:21.056Z,6.47
2022-10-11T08:41:49.517Z,5.70
2022-10-11T08:45:10.439Z,5.87
2022-10-11T08:48:17.253Z,6.27
2022-10-11T08:51:41.447Z,6.10
2022-10-11T08:54:57.651Z,5.40
2022-10-11T08:58:03.949Z,4.77
2022-10-11T09:01:13.196Z,4.50
2022-10-11T09:04:17.078Z,4.97
2022-10-11T09:07:36.301Z,4.83
2022-10-11T09:10:59.626Z,5.07
2022-10-11T09:14:08.944Z,4.90
2022-10-11T09:17:48.758Z,5.80
2022-10-11T09:21:33.248Z,4.90
2022-10-11T09:25:06.235Z,4.60
2022-10-11T09:28:49.782Z,4.40
2022-10-11T09:31:56.994Z,4.10
2022-10-11T09:35:18.305Z,4.10
2022-10-11T09:38:42.696Z,3.90
2022-10-11T09:41:53.779Z,3.63
2022-10-11T09:44:57.255Z,4.03
2022-10-11T09:48:02.158Z,5.63
2022-10-11T09:51:08.076Z,4.40
2022-10-11T09:54:12.364Z,4.40
2022-10-11T09:57:24.576Z,3.73
2022-10-11T10:00:28.522Z,3.60
2022-10-11T10:03:32.680Z,3.43
2022-10-11T10:06:34.896Z,3.47
2022-10-11T10:09:36.553Z,3.00
2022-10-11T10:12:38.171Z,3.37
2022-10-11T10:15:46.508Z,3.47
2022-10-11T10:18:53.387Z,3.63
2022-10-11T10:21:56.265Z,3.50
2022-10-11T10:25:01.790Z,3.77
2022-10-11T10:28:16.966Z,3.77
2022-10-11T10:31:25.498Z,4.10
2022-10-11T10:34:33.805Z,3.40
2022-10-11T10:37:41.621Z,3.40
2022-10-11T10:40:53.484Z,3.40
2022-10-11T10:43:58.890Z,3.50
2022-10-11T10:47:15.537Z,3.37
2022-10-11T10:50:31.060Z,3.30
2022-10-11T10:53:40.422Z,2.90
2022-10-11T10:56:53.145Z,3.20
2022-10-11T11:00:17.609Z,2.93
2022-10-11T11:03:25.899Z,3.00
2022-10-11T11:06:48.833Z,3.53
2022-10-11T11:10:02.445Z,2.00
2022-10-11T11:13:19.196Z,2.80
2022-10-11T11:16:36.319Z,3.00
2022-10-11T11:20:05.802Z,2.93
2022-10-11T11:23:16.246Z,2.40
2022-10-11T11:26:31.436Z,2.63
2022-10-11T11:29:58.118Z,2.60
2022-10-11T11:33:08.672Z,2.70
2022-10-11T11:36:16.044Z,2.40
2022-10-11T11:39:23.445Z,2.60
2022-10-11T11:42:41.614Z,2.10
2022-10-11T11:46:01.156Z,2.77
2022-10-11T11:49:14.906Z,2.23
2022-10-11T11:52:26.556Z,1.87
2022-10-11T11:55:54.822Z,2.00
2022-10-11T11:59:22.606Z,2.20
2022-10-11T12:02:37.496Z,2.33
2022-10-11T12:05:59.182Z,1.77
2022-10-11T12:09:03.957Z,5.07
2022-10-11T12:12:31.415Z,1.87
2022-10-11T12:15:33.459Z,1.90
2022-10-11T12:18:47.365Z,2.30
2022-10-11T12:22:20.195Z,2.17
2022-10-11T12:25:21.899Z,2.87
2022-10-11T12:28:42.303Z,2.10
2022-10-11T12:32:00.716Z,2.00
2022-10-11T12:35:34.588Z,2.30
2022-10-11T12:38:39.869Z,1.77
2022-10-11T12:41:54.872Z,1.80
2022-10-11T12:45:14.413Z,1.63
2022-10-11T12:48:41.077Z,2.20
2022-10-11T12:51:59.464Z,2.40
2022-10-11T12:55:24.409Z,2.40
2022-10-11T12:58:27.881Z,2.10
2022-10-11T13:01:36.068Z,2.37
2022-10-11T13:04:45.967Z,2.10
2022-10-11T13:07:48.334Z,1.80
2022-10-11T13:10:50.986Z,1.67
2022-10-11T13:13:58.766Z,2.10
2022-10-11T13:17:03.661Z,1.93
2022-10-11T13:20:17.929Z,2.50
2022-10-11T13:23:35.114Z,3.10
2022-10-11T13:26:37.422Z,1.70
2022-10-11T13:29:40.980Z,2.10
2022-10-11T13:32:43.571Z,2.60
2022-10-11T13:35:45.393Z,2.03
2022-10-11T13:38:58.742Z,2.90
2022-10-11T13:42:02.214Z,1.60
2022-10-11T13:45:04.524Z,2.10
2022-10-11T13:48:14.814Z,1.90
2022-10-11T13:51:27.028Z,2.00
2022-10-11T13:54:53.796Z,1.87
2022-10-11T13:58:20.671Z,2.50
2022-10-11T14:01:38.628Z,2.50
2022-10-11T14:04:41.443Z,2.07
2022-10-11T14:07:43.116Z,2.00
2022-10-11T14:10:52.819Z,2.27
2022-10-11T14:14:24.173Z,2.00
2022-10-11T14:17:42.725Z,2.20
2022-10-11T14:20:44.355Z,3.47
2022-10-11T14:24:06.832Z,7.10
2022-10-11T14:27:17.564Z,2.50
2022-10-11T14:30:27.001Z,1.70
2022-10-11T14:33:30.328Z,2.10
2022-10-11T14:36:32.109Z,2.40
2022-10-11T14:39:33.799Z,3.83
2022-10-11T14:42:51.285Z,1.60
2022-10-11T14:45:53.172Z,1.63
2022-10-11T14:48:56.251Z,1.70
2022-10-11T14:51:59.280Z,1.60
2022-10-11T14:55:00.990Z,1.70
2022-10-11T14:58:03.159Z,1.73
2022-10-11T15:01:04.946Z,1.90
2022-10-11T15:04:06.593Z,3.07
2022-10-11T15:07:12.715Z,2.27
2022-10-11T15:10:23.759Z,1.70
2022-10-11T15:13:25.420Z,1.73
2022-10-11T15:16:27.075Z,1.60
2022-10-11T15:19:28.721Z,2.27
2022-10-11T15:22:30.341Z,13.10
2022-10-11T15:25:32.306Z,4.80
2022-10-11T15:28:34.080Z,2.57
2022-10-11T15:31:35.799Z,6.67
2022-10-11T15:34:37.409Z,7.03
2022-10-11T15:37:39.505Z,3.50
2022-10-11T15:40:41.111Z,3.73
2022-10-11T15:43:44.492Z,3.20
2022-10-11T15:46:46.208Z,2.60
2022-10-11T15:49:47.966Z,1.80
2022-10-11T15:52:51.319Z,3.13
2022-10-11T15:55:55.462Z,2.87
2022-10-11T15:58:57.661Z,3.70
2022-10-11T16:01:59.303Z,3.00
2022-10-11T16:05:01.015Z,5.97
2022-10-11T16:08:02.658Z,2.80
2022-10-11T16:11:06.989Z,2.63
2022-10-11T16:14:33.187Z,3.03
2022-10-11T16:17:35.037Z,3.00
2022-10-11T16:20:41.752Z,3.83
2022-10-11T16:23:43.449Z,2.60
2022-10-11T16:26:45.015Z,3.87
2022-10-11T16:29:47.737Z,4.90
2022-10-11T16:32:49.468Z,2.83
2022-10-11T16:35:51.178Z,2.43
2022-10-11T16:38:57.277Z,3.03
2022-10-11T16:41:59.104Z,2.10
2022-10-11T16:45:00.978Z,1.90
2022-10-11T16:48:03.003Z,2.30
2022-10-11T16:51:06.402Z,2.87
2022-10-11T16:54:08.109Z,2.50
2022-10-11T16:57:10.823Z,2.30
2022-10-11T17:00:13.308Z,2.23
2022-10-11T17:03:15.015Z,2.43
2022-10-11T17:06:17.351Z,3.07
2022-10-11T17:09:18.968Z,2.67
2022-10-11T17:12:23.009Z,2.70
2022-10-11T17:15:26.049Z,2.83
2022-10-11T17:18:27.860Z,6.27
2022-10-11T17:21:29.617Z,4.90
2022-10-11T17:24:35.940Z,3.20
2022-10-11T17:27:38.456Z,4.00
2022-10-11T17:30:42.765Z,3.90
2022-10-11T17:33:46.798Z,2.40
2022-10-11T17:36:48.577Z,2.43
2022-10-11T17:39:50.196Z,2.07
2022-10-11T17:42:52.577Z,7.87
2022-10-11T17:45:55.680Z,6.07
2022-10-11T17:48:57.259Z,2.60
2022-10-11T17:51:58.869Z,2.10
2022-10-11T17:55:01.598Z,2.30
2022-10-11T17:58:03.305Z,1.87
2022-10-11T18:01:07.889Z,2.13
2022-10-11T18:04:16.373Z,2.30
2022-10-11T18:07:18.022Z,2.07
2022-10-11T18:10:19.911Z,2.23
2022-10-11T18:13:21.533Z,1.90
2022-10-11T18:16:26.925Z,2.10
2022-10-11T18:19:28.631Z,2.17
2022-10-11T18:22:30.351Z,2.20
2022-10-11T18:25:35.217Z,2.07
2022-10-11T18:28:36.992Z,2.67
2022-10-11T18:31:39.748Z,2.20
2022-10-11T18:34:41.509Z,1.97
2022-10-11T18:37:43.100Z,2.20
2022-10-11T18:40:57.117Z,2.07
2022-10-11T18:44:00.816Z,2.20
2022-10-11T18:47:02.443Z,1.80
2022-10-11T18:50:04.299Z,1.97
2022-10-11T18:53:06.843Z,1.97
2022-10-11T18:56:10.597Z,2.23
2022-10-11T18:59:12.230Z,2.13
2022-10-11T19:02:13.854Z,2.03
2022-10-11T19:05:15.578Z,2.00
2022-10-11T19:08:17.216Z,2.10
2022-10-11T19:11:22.675Z,2.40
2022-10-11T19:14:28.549Z,2.40
2022-10-11T19:17:30.352Z,2.27
2022-10-11T19:20:35.663Z,2.73
2022-10-11T19:23:43.557Z,2.43
2022-10-11T19:26:45.878Z,4.03
2022-10-11T19:29:47.520Z,2.63
2022-10-11T19:32:49.748Z,4.60
2022-10-11T19:35:55.421Z,2.60
2022-10-11T19:38:57.086Z,2.27
2022-10-11T19:42:01.662Z,2.27
2022-10-11T19:45:03.560Z,2.80
2022-10-11T19:48:05.177Z,2.37
2022-10-11T19:51:10.018Z,1.83
2022-10-11T19:54:13.594Z,2.53
2022-10-11T19:57:15.203Z,2.53
2022-10-11T20:00:17.061Z,2.27
2022-10-11T20:03:18.696Z,2.07
2022-10-11T20:06:23.805Z,2.23
2022-10-11T20:09:30.206Z,2.10
2022-10-11T20:12:33.808Z,2.20
2022-10-11T20:15:37.773Z,2.30
2022-10-11T20:18:39.989Z,1.70
2022-10-11T20:21:41.900Z,2.10
2022-10-11T20:24:59.491Z,1.97
2022-10-11T20:28:01.098Z,2.00
2022-10-11T20:31:04.578Z,2.10
2022-10-11T20:34:07.443Z,1.80
2022-10-11T20:37:09.345Z,1.73
2022-10-11T20:40:11.747Z,2.30
2022-10-11T20:43:14.748Z,2.00
2022-10-11T20:46:18.666Z,2.10
2022-10-11T20:49:20.582Z,2.00
2022-10-11T20:52:22.197Z,2.60
2022-10-11T20:55:23.795Z,2.27
2022-10-11T20:58:25.436Z,2.47
2022-10-11T21:01:34.426Z,2.60
2022-10-11T21:04:36.111Z,2.57
2022-10-11T21:07:37.734Z,2.00
2022-10-11T21:10:51.762Z,2.30
2022-10-11T21:14:01.207Z,2.50
2022-10-11T21:17:02.801Z,3.93
2022-10-11T21:20:06.076Z,2.93
2022-10-11T21:23:08.561Z,4.03
2022-10-11T21:26:12.751Z,3.50
2022-10-11T21:29:14.480Z,2.70
2022-10-11T21:32:16.171Z,2.80
2022-10-11T21:35:18.004Z,3.00
2022-10-11T21:38:21.630Z,3.47
2022-10-11T21:41:25.562Z,4.57
2022-10-11T21:44:32.393Z,4.70
2022-10-11T21:47:38.776Z,3.70
2022-10-11T21:50:40.855Z,3.70
2022-10-11T21:53:42.445Z,4.03
2022-10-11T21:56:44.058Z,3.73
2022-10-11T21:59:45.663Z,3.30
2022-10-11T22:02:47.555Z,2.67
2022-10-11T22:05:49.182Z,2.60
2022-10-11T22:08:52.660Z,2.63
2022-10-11T22:11:54.272Z,2.83
2022-10-11T22:14:55.860Z,2.70
2022-10-11T22:17:57.482Z,2.83
2022-10-11T22:21:15.131Z,2.70
2022-10-11T22:24:17.148Z,3.83
2022-10-11T22:27:18.765Z,3.23
2022-10-11T22:30:20.499Z,2.87
2022-10-11T22:33:22.151Z,2.80
2022-10-11T22:36:24.289Z,2.47
2022-10-11T22:39:25.987Z,2.73
2022-10-11T22:42:29.292Z,3.07
2022-10-11T22:45:33.473Z,2.23
2022-10-11T22:48:35.501Z,2.10
2022-10-11T22:51:37.092Z,2.40
2022-10-11T22:54:38.704Z,2.27
2022-10-11T22:57:40.271Z,2.30
2022-10-11T23:00:42.074Z,2.10
2022-10-11T23:03:47.005Z,2.20
2022-10-11T23:06:48.646Z,2.63
2022-10-11T23:09:50.248Z,3.03
2022-10-11T23:12:51.845Z,2.30
2022-10-11T23:15:53.528Z,2.40
2022-10-11T23:18:55.349Z,2.40
2022-10-11T23:21:56.953Z,2.43
2022-10-11T23:24:58.527Z,2.10
2022-10-11T23:28:01.077Z,2.57
2022-10-11T23:31:07.757Z,2.30
2022-10-11T23:34:09.394Z,2.13
2022-10-11T23:37:10.992Z,2.80
2022-10-11T23:40:12.634Z,3.00
2022-10-11T23:43:14.308Z,2.43
2022-10-11T23:46:16.063Z,2.40
2022-10-11T23:49:17.690Z,2.40
2022-10-11T23:52:19.303Z,2.93
2022-10-11T23:55:21.245Z,2.27
2022-10-11T23:58:22.920Z,3.03
